Suehiro Maru No.8 — JK5423 — position and weather

sailwx.info

Track history (hours):
 
Tides and Currents Weather Stations Pressure Air Temp Water Temp Dewpoint Dewpoint Depression Visibility Wind Speed Wind Dir Waves Ship Positions

Suehiro Maru No.8

Last reported at 2017-Mar-25 09:24 UTC. Time now 2017-Mar-26 01:39 UTC.
Position N 34°00' E 135°02'.

Length 88 m; draft 5.2 m.

Type: Cargo ship. MMSI: 431400446.

Date/timePositionNaut miles runAvg speedWind from/ knotsBaromVisibWave heightAir tempDewpointWater temp
2017-Mar-25 09:24N 34°00' E 135°02'1112.9
2017-Mar-25 08:34N 34°11' E 135°05'4 4.2
2017-Mar-25 07:34N 34°15' E 135°07'0 0.0
2017-Mar-25 06:33N 34°15' E 135°07'0 0.0
2017-Mar-25 05:33N 34°15' E 135°07'0 0.0
2017-Mar-25 04:34N 34°15' E 135°07'0 0.0
2017-Mar-25 03:33N 34°15' E 135°07'0 0.0
2017-Mar-25 02:33N 34°15' E 135°07'0 0.0
2017-Mar-25 01:33N 34°15' E 135°07'0 0.0
2017-Mar-25 00:33N 34°15' E 135°07'0 0.0
2017-Mar-24 23:33N 34°15' E 135°07'0 0.0
2017-Mar-24 22:33N 34°15' E 135°07'0 0.0
2017-Mar-24 21:33N 34°15' E 135°07'0 0.0
2017-Mar-24 20:34N 34°15' E 135°07'1 1.0
2017-Mar-24 19:33N 34°14' E 135°06'1110.6
2017-Mar-24 18:33N 34°12' E 134°53'11112.1
2017-Mar-24 09:24N 34°10' E 132°40'0 0.1
2017-Mar-24 07:22N 34°10' E 132°39'0 0.0
2017-Mar-24 06:32N 34°10' E 132°39'0 0.0
2017-Mar-24 05:33N 34°10' E 132°39'338 7.7
2017-Mar-22 09:26N 34°59' E 139°26'1112.3
2017-Mar-22 08:32N 35°05' E 139°37'1212.5
2017-Mar-22 07:33N 35°15' E 139°46'1111.5
2017-Mar-22 06:33N 35°27' E 139°45'1111.2
2017-Mar-22 05:34N 35°37' E 139°48'0 0.1
2017-Mar-22 04:33N 35°37' E 139°49'0 0.0
2017-Mar-22 03:33N 35°37' E 139°49'0 0.0
2017-Mar-22 02:34N 35°37' E 139°49'0 0.0
2017-Mar-22 01:33N 35°37' E 139°49'0 0.0
2017-Mar-22 00:33N 35°37' E 139°49'0 0.0
2017-Mar-21 23:34N 35°37' E 139°49'2 1.9
2017-Mar-21 22:33N 35°36' E 139°50'1111.0
2017-Mar-21 21:34N 35°25' E 139°48'1111.2
2017-Mar-21 20:33N 35°14' E 139°47'1110.8
2017-Mar-21 19:33N 35°04' E 139°41'1212.2
2017-Mar-21 18:33N 34°56' E 139°30'  
2017-Mar-19 09:31N 34°02' E 135°03'1213.0
2017-Mar-19 08:34N 34°14' E 135°05'1 1.4
2017-Mar-19 07:33N 34°15' E 135°07'0 0.0
2017-Mar-19 06:33N 34°15' E 135°07'0 0.0
2017-Mar-19 05:33N 34°15' E 135°07'0 0.0
2017-Mar-19 04:33N 34°15' E 135°07'0 0.0
2017-Mar-19 03:33N 34°15' E 135°07'0 0.0
2017-Mar-19 02:34N 34°15' E 135°07'0 0.0
2017-Mar-19 01:33N 34°15' E 135°07'1 0.9
2017-Mar-19 00:33N 34°15' E 135°06'3 3.2
2017-Mar-18 23:34N 34°12' E 135°04'  
2017-Mar-16 10:33N 34°08' E 135°03'7 7.5
2017-Mar-16 09:34N 34°15' E 135°07'0 0.0
2017-Mar-16 08:33N 34°15' E 135°07'0 0.0
2017-Mar-16 07:31N 34°15' E 135°07'0 0.0
2017-Mar-16 06:34N 34°15' E 135°07'0 0.0
2017-Mar-16 05:33N 34°15' E 135°07'0 0.0
2017-Mar-16 04:33N 34°15' E 135°07'0 0.0
2017-Mar-16 03:33N 34°15' E 135°07'0 0.0
2017-Mar-16 02:34N 34°15' E 135°07'0 0.0
2017-Mar-16 01:33N 34°15' E 135°07'0 0.0
2017-Mar-16 00:33N 34°15' E 135°07'0 0.0
2017-Mar-15 23:34N 34°15' E 135°07'0 0.0
2017-Mar-15 22:34N 34°15' E 135°07'0 0.0
2017-Mar-15 21:33N 34°15' E 135°07'1 1.0
2017-Mar-15 20:33N 34°15' E 135°06'0 0.1
2017-Mar-15 19:33N 34°15' E 135°06'0 0.0
2017-Mar-15 18:34N 34°15' E 135°06'0 0.1
2017-Mar-15 17:33N 34°15' E 135°06'0 0.1
2017-Mar-15 16:34N 34°15' E 135°06'0 0.1
2017-Mar-15 15:33N 34°15' E 135°06'0 0.0
2017-Mar-15 14:34N 34°15' E 135°06'0 0.0
2017-Mar-15 13:34N 34°15' E 135°06'0 0.0
2017-Mar-15 12:33N 34°15' E 135°06'0 0.1
2017-Mar-15 11:34N 34°15' E 135°06'0 0.0
2017-Mar-15 10:33N 34°15' E 135°06'0 0.1
2017-Mar-15 09:34N 34°15' E 135°06'  
Track history (hours):
 
Tides and Currents Weather Stations Pressure Air Temp Water Temp Dewpoint Dewpoint Depression Visibility Wind Speed Wind Dir Waves Ship Positions

Suehiro Maru No.8

Last reported at 2017-Mar-25 09:24 UTC. Time now 2017-Mar-26 01:39 UTC.
Position N 34°00' E 135°02'.

Length 88 m; draft 5.2 m.

Type: Cargo ship. MMSI: 431400446.

Date/timePositionNaut miles runAvg speedWind from/ knotsBaromVisibWave heightAir tempDewpointWater temp
2017-Mar-25 09:24N 34°00' E 135°02'1112.9
2017-Mar-25 08:34N 34°11' E 135°05'4 4.2
2017-Mar-25 07:34N 34°15' E 135°07'0 0.0
2017-Mar-25 06:33N 34°15' E 135°07'0 0.0
2017-Mar-25 05:33N 34°15' E 135°07'0 0.0
2017-Mar-25 04:34N 34°15' E 135°07'0 0.0
2017-Mar-25 03:33N 34°15' E 135°07'0 0.0
2017-Mar-25 02:33N 34°15' E 135°07'0 0.0
2017-Mar-25 01:33N 34°15' E 135°07'0 0.0
2017-Mar-25 00:33N 34°15' E 135°07'0 0.0
2017-Mar-24 23:33N 34°15' E 135°07'0 0.0
2017-Mar-24 22:33N 34°15' E 135°07'0 0.0
2017-Mar-24 21:33N 34°15' E 135°07'0 0.0
2017-Mar-24 20:34N 34°15' E 135°07'1 1.0
2017-Mar-24 19:33N 34°14' E 135°06'1110.6
2017-Mar-24 18:33N 34°12' E 134°53'11112.1
2017-Mar-24 09:24N 34°10' E 132°40'0 0.1
2017-Mar-24 07:22N 34°10' E 132°39'0 0.0
2017-Mar-24 06:32N 34°10' E 132°39'0 0.0
2017-Mar-24 05:33N 34°10' E 132°39'338 7.7
2017-Mar-22 09:26N 34°59' E 139°26'1112.3
2017-Mar-22 08:32N 35°05' E 139°37'1212.5
2017-Mar-22 07:33N 35°15' E 139°46'1111.5
2017-Mar-22 06:33N 35°27' E 139°45'1111.2
2017-Mar-22 05:34N 35°37' E 139°48'0 0.1
2017-Mar-22 04:33N 35°37' E 139°49'0 0.0
2017-Mar-22 03:33N 35°37' E 139°49'0 0.0
2017-Mar-22 02:34N 35°37' E 139°49'0 0.0
2017-Mar-22 01:33N 35°37' E 139°49'0 0.0
2017-Mar-22 00:33N 35°37' E 139°49'0 0.0
2017-Mar-21 23:34N 35°37' E 139°49'2 1.9
2017-Mar-21 22:33N 35°36' E 139°50'1111.0
2017-Mar-21 21:34N 35°25' E 139°48'1111.2
2017-Mar-21 20:33N 35°14' E 139°47'1110.8
2017-Mar-21 19:33N 35°04' E 139°41'1212.2
2017-Mar-21 18:33N 34°56' E 139°30'  
2017-Mar-19 09:31N 34°02' E 135°03'1213.0
2017-Mar-19 08:34N 34°14' E 135°05'1 1.4
2017-Mar-19 07:33N 34°15' E 135°07'0 0.0
2017-Mar-19 06:33N 34°15' E 135°07'0 0.0
2017-Mar-19 05:33N 34°15' E 135°07'0 0.0
2017-Mar-19 04:33N 34°15' E 135°07'0 0.0
2017-Mar-19 03:33N 34°15' E 135°07'0 0.0
2017-Mar-19 02:34N 34°15' E 135°07'0 0.0
2017-Mar-19 01:33N 34°15' E 135°07'1 0.9
2017-Mar-19 00:33N 34°15' E 135°06'3 3.2
2017-Mar-18 23:34N 34°12' E 135°04'  
2017-Mar-16 10:33N 34°08' E 135°03'7 7.5
2017-Mar-16 09:34N 34°15' E 135°07'0 0.0
2017-Mar-16 08:33N 34°15' E 135°07'0 0.0
2017-Mar-16 07:31N 34°15' E 135°07'0 0.0
2017-Mar-16 06:34N 34°15' E 135°07'0 0.0
2017-Mar-16 05:33N 34°15' E 135°07'0 0.0
2017-Mar-16 04:33N 34°15' E 135°07'0 0.0
2017-Mar-16 03:33N 34°15' E 135°07'0 0.0
2017-Mar-16 02:34N 34°15' E 135°07'0 0.0
2017-Mar-16 01:33N 34°15' E 135°07'0 0.0
2017-Mar-16 00:33N 34°15' E 135°07'0 0.0
2017-Mar-15 23:34N 34°15' E 135°07'0 0.0
2017-Mar-15 22:34N 34°15' E 135°07'0 0.0
2017-Mar-15 21:33N 34°15' E 135°07'1 1.0
2017-Mar-15 20:33N 34°15' E 135°06'0 0.1
2017-Mar-15 19:33N 34°15' E 135°06'0 0.0
2017-Mar-15 18:34N 34°15' E 135°06'0 0.1
2017-Mar-15 17:33N 34°15' E 135°06'0 0.1
2017-Mar-15 16:34N 34°15' E 135°06'0 0.1
2017-Mar-15 15:33N 34°15' E 135°06'0 0.0
2017-Mar-15 14:34N 34°15' E 135°06'0 0.0
2017-Mar-15 13:34N 34°15' E 135°06'0 0.0
2017-Mar-15 12:33N 34°15' E 135°06'0 0.1
2017-Mar-15 11:34N 34°15' E 135°06'0 0.0
2017-Mar-15 10:33N 34°15' E 135°06'0 0.1
2017-Mar-15 09:34N 34°15' E 135°06'  

Dump ship's entire track history